Time;durP1;ratioP1;P1;durP2;ratioP2;P2;SDS_P1;SDS_P2;PMS_P1;PMS_P2;Temp;Humidity;BMP_temperature;BMP_pressure;BME280_temperature;BME280_humidity;BME280_pressure;Samples;Min_cycle;Max_cycle;Signal;HPM_P1;HPM_P2
2021/04/23 00:00:19;;;;;;;11.80;4.20;;;4.50;89.10;;;;;;5004406;28;20061;-85
2021/04/23 00:02:46;;;;;;;12.65;4.30;;;4.40;89.20;;;;;;4992777;28;20050;-84
2021/04/23 00:05:15;;;;;;;11.48;3.95;;;4.50;89.40;;;;;;5005380;28;20147;-85
2021/04/23 00:07:41;;;;;;;13.95;4.47;;;4.40;89.50;;;;;;4996225;28;20072;-85
2021/04/23 00:10:13;;;;;;;13.52;4.05;;;4.40;89.60;;;;;;4999431;28;20136;-85
2021/04/23 00:12:40;;;;;;;10.75;3.60;;;4.40;89.60;;;;;;5002281;28;20081;-85
2021/04/23 00:15:10;;;;;;;14.25;3.90;;;4.40;89.80;;;;;;5003682;28;20060;-85
2021/04/23 00:17:36;;;;;;;10.07;4.45;;;4.30;90.00;;;;;;5003342;28;20113;-83
2021/04/23 00:20:09;;;;;;;12.93;4.47;;;4.30;90.10;;;;;;5003589;28;20129;-85
2021/04/23 00:22:35;;;;;;;13.48;4.10;;;4.30;90.20;;;;;;5003021;28;20060;-85
2021/04/23 00:25:04;;;;;;;15.07;4.70;;;4.30;90.30;;;;;;5006505;28;20416;-85
2021/04/23 00:27:30;;;;;;;13.48;4.18;;;4.20;90.30;;;;;;4994367;28;20073;-85
2021/04/23 00:29:58;;;;;;;13.15;4.10;;;4.20;90.50;;;;;;4989104;28;20100;-85
2021/04/23 00:35:09;;;;;;;8.90;4.47;;;4.20;90.70;;;;;;5006802;28;20045;-86
2021/04/23 00:37:35;;;;;;;17.70;4.88;;;4.20;90.70;;;;;;5003959;28;20141;-85
2021/04/23 00:40:02;;;;;;;15.50;4.47;;;4.10;90.80;;;;;;5007239;28;20057;-85
2021/04/23 00:42:28;;;;;;;14.57;4.03;;;4.20;90.80;;;;;;5006189;28;20127;-86
2021/04/23 00:44:54;;;;;;;13.13;4.15;;;4.10;90.90;;;;;;4999141;28;20083;-85
2021/04/23 00:47:20;;;;;;;12.55;3.75;;;4.10;91.00;;;;;;4997379;28;20128;-85
2021/04/23 00:49:46;;;;;;;14.23;4.53;;;4.10;91.10;;;;;;5006047;28;20050;-84
2021/04/23 00:52:12;;;;;;;10.75;3.95;;;4.10;91.10;;;;;;5007733;28;20062;-85
2021/04/23 00:54:38;;;;;;;10.23;3.63;;;4.10;91.20;;;;;;5003349;28;20049;-85
2021/04/23 00:57:04;;;;;;;11.93;3.72;;;4.10;91.20;;;;;;5006485;28;20053;-85
2021/04/23 00:59:30;;;;;;;12.40;4.28;;;4.10;91.30;;;;;;5006583;28;20086;-85
2021/04/23 01:02:07;;;;;;;14.50;3.92;;;4.10;91.40;;;;;;5009478;28;20627;-85
2021/04/23 01:04:34;;;;;;;12.82;3.63;;;4.10;91.40;;;;;;5006026;28;20611;-86
2021/04/23 01:07:01;;;;;;;11.30;3.35;;;4.20;91.60;;;;;;5008512;28;20046;-85
2021/04/23 01:09:30;;;;;;;12.43;3.50;;;4.30;91.70;;;;;;4995790;28;20056;-84
2021/04/23 01:11:58;;;;;;;11.80;3.70;;;4.30;91.60;;;;;;5010724;28;20104;-85
2021/04/23 01:14:24;;;;;;;11.65;3.83;;;4.40;91.60;;;;;;5009068;28;20038;-85
2021/04/23 01:16:50;;;;;;;13.48;3.53;;;4.40;91.60;;;;;;5011133;28;20053;-86
2021/04/23 01:19:21;;;;;;;12.63;3.47;;;4.50;91.50;;;;;;5010622;28;20053;-84
2021/04/23 01:21:48;;;;;;;14.45;3.63;;;4.50;91.70;;;;;;5009434;28;20061;-84
2021/04/23 01:24:14;;;;;;;14.10;3.75;;;4.50;91.30;;;;;;4993955;28;20061;-85
2021/04/23 01:26:44;;;;;;;13.13;3.47;;;4.50;91.30;;;;;;5009476;28;20049;-85
2021/04/23 01:29:12;;;;;;;12.20;3.42;;;4.50;91.30;;;;;;5010544;28;20057;-85
2021/04/23 01:31:41;;;;;;;11.55;4.32;;;4.50;91.30;;;;;;5007534;28;20137;-85
2021/04/23 01:34:29;;;;;;;14.88;3.00;;;4.60;91.30;;;;;;5010507;28;20472;-84
2021/04/23 01:36:56;;;;;;;10.77;3.25;;;4.60;91.20;;;;;;4996417;28;20057;-85
2021/04/23 01:39:26;;;;;;;9.27;3.15;;;4.60;91.20;;;;;;5011285;28;20070;-85
2021/04/23 01:41:54;;;;;;;11.77;3.50;;;4.60;91.20;;;;;;5008005;28;20108;-84
2021/04/23 01:44:21;;;;;;;19.13;4.15;;;4.60;91.20;;;;;;5007924;28;20045;-84
2021/04/23 01:46:48;;;;;;;14.80;3.30;;;4.60;91.20;;;;;;5009086;28;20045;-84
2021/04/23 01:49:17;;;;;;;13.10;4.70;;;4.60;91.20;;;;;;5010985;28;20436;-85
2021/04/23 01:51:59;;;;;;;12.13;3.47;;;4.60;91.10;;;;;;5002799;28;20050;-85
2021/04/23 01:54:28;;;;;;;12.07;3.35;;;4.60;91.10;;;;;;4996874;28;20177;-85
2021/04/23 01:56:55;;;;;;;10.43;3.13;;;4.60;91.10;;;;;;4991785;28;20046;-85
2021/04/23 01:59:23;;;;;;;12.73;3.30;;;4.60;91.00;;;;;;5008554;28;20108;-84
2021/04/23 02:01:49;;;;;;;13.30;3.40;;;4.60;91.00;;;;;;5008169;28;20057;-84
2021/04/23 02:04:16;;;;;;;14.30;3.50;;;4.60;91.00;;;;;;5009471;28;20129;-83
2021/04/23 02:06:43;;;;;;;10.48;2.95;;;4.60;90.90;;;;;;4991291;28;20687;-85
2021/04/23 02:09:12;;;;;;;8.77;3.13;;;4.70;90.90;;;;;;4998478;28;20054;-84
2021/04/23 02:11:41;;;;;;;12.55;3.28;;;4.70;90.90;;;;;;5001786;28;20077;-85
2021/04/23 02:14:07;;;;;;;11.25;3.35;;;4.70;90.80;;;;;;5001021;28;20049;-84
2021/04/23 02:16:33;;;;;;;11.45;2.97;;;4.70;90.80;;;;;;5001864;28;20046;-84
2021/04/23 02:19:00;;;;;;;13.48;3.38;;;4.80;90.80;;;;;;5001545;28;20042;-85
2021/04/23 02:21:26;;;;;;;13.32;3.20;;;4.80;90.70;;;;;;5002204;28;20271;-85
2021/04/23 02:23:52;;;;;;;11.63;3.22;;;4.80;90.60;;;;;;5002627;28;20046;-84
2021/04/23 02:26:21;;;;;;;11.15;3.25;;;4.80;90.50;;;;;;4986717;28;20038;-84
2021/04/23 02:28:50;;;;;;;11.35;3.28;;;4.80;90.40;;;;;;5001289;28;20519;-84
2021/04/23 02:31:20;;;;;;;11.63;3.20;;;4.70;90.50;;;;;;5002505;28;20049;-84
2021/04/23 02:33:49;;;;;;;12.77;3.10;;;4.70;90.50;;;;;;4999433;28;20033;-84
2021/04/23 02:36:15;;;;;;;11.75;3.42;;;4.70;90.50;;;;;;5002480;28;20045;-85
2021/04/23 02:38:43;;;;;;;11.40;3.72;;;4.60;90.50;;;;;;5001858;28;20050;-85
2021/04/23 02:41:09;;;;;;;14.75;3.20;;;4.60;90.50;;;;;;5000845;28;20050;-84
2021/04/23 02:43:40;;;;;;;14.48;3.45;;;4.60;90.50;;;;;;5002349;28;20083;-85
2021/04/23 02:46:07;;;;;;;13.25;3.33;;;4.60;90.40;;;;;;5003613;28;20248;-85
2021/04/23 02:48:36;;;;;;;12.10;3.10;;;4.60;90.50;;;;;;5002129;28;20037;-85
2021/04/23 02:51:09;;;;;;;12.65;3.47;;;4.60;90.40;;;;;;4999017;28;20042;-85
2021/04/23 02:53:35;;;;;;;8.98;3.00;;;4.60;90.30;;;;;;5004034;28;21745;-85
2021/04/23 02:56:03;;;;;;;15.10;3.50;;;4.60;90.30;;;;;;5000370;28;20050;-85
2021/04/23 02:58:30;;;;;;;6.93;2.85;;;4.60;90.30;;;;;;4986369;28;20056;-85
2021/04/23 03:01:00;;;;;;;12.30;3.00;;;4.50;90.20;;;;;;4984506;28;20545;-84
2021/04/23 03:03:27;;;;;;;11.73;3.40;;;4.50;90.20;;;;;;5001860;28;20241;-84
2021/04/23 03:05:55;;;;;;;11.02;3.28;;;4.50;90.20;;;;;;5000124;28;20053;-84
2021/04/23 03:08:21;;;;;;;13.20;3.20;;;4.50;90.20;;;;;;4998338;28;20088;-84
2021/04/23 03:10:57;;;;;;;10.23;2.92;;;4.40;90.10;;;;;;4999863;28;20518;-83
2021/04/23 03:13:26;;;;;;;9.98;2.85;;;4.40;90.20;;;;;;5000873;28;20042;-84
2021/04/23 03:15:54;;;;;;;12.82;3.40;;;4.40;90.20;;;;;;4999918;28;20045;-84
2021/04/23 03:18:23;;;;;;;12.30;2.92;;;4.40;90.10;;;;;;4999266;28;20046;-84
2021/04/23 03:20:52;;;;;;;8.75;2.72;;;4.40;90.10;;;;;;4982133;28;20180;-84
2021/04/23 03:23:18;;;;;;;9.60;3.28;;;4.30;90.00;;;;;;4983319;28;20045;-84
2021/04/23 03:25:44;;;;;;;10.20;3.53;;;4.20;90.00;;;;;;4984883;28;20042;-84
2021/04/23 03:28:11;;;;;;;9.77;3.42;;;4.20;90.10;;;;;;5001368;28;20151;-85
2021/04/23 03:30:40;;;;;;;16.17;3.80;;;4.10;90.20;;;;;;5001464;28;20344;-85
2021/04/23 03:33:08;;;;;;;13.98;3.75;;;4.10;90.30;;;;;;4999784;28;20062;-84
2021/04/23 03:35:34;;;;;;;10.90;3.50;;;4.00;90.40;;;;;;5001677;28;20049;-86
2021/04/23 03:38:01;;;;;;;9.80;3.17;;;3.90;90.50;;;;;;5000141;28;20046;-84
2021/04/23 03:40:29;;;;;;;12.48;3.28;;;4.00;90.50;;;;;;5001878;28;20049;-84
2021/04/23 03:42:56;;;;;;;9.27;3.45;;;3.90;90.60;;;;;;5000675;28;20042;-85
2021/04/23 03:45:23;;;;;;;10.90;4.20;;;3.80;90.70;;;;;;5000415;28;20050;-84
2021/04/23 03:47:50;;;;;;;10.98;3.42;;;3.80;90.80;;;;;;4998359;28;20130;-84
2021/04/23 03:50:20;;;;;;;12.63;3.60;;;3.80;90.90;;;;;;5001121;28;20056;-84
2021/04/23 03:52:47;;;;;;;9.27;3.60;;;3.70;91.00;;;;;;4997666;28;20046;-84
2021/04/23 03:55:17;;;;;;;12.30;3.80;;;3.70;91.10;;;;;;4999649;28;20084;-84
2021/04/23 03:57:43;;;;;;;16.58;3.83;;;3.70;91.20;;;;;;5002388;28;20480;-84
2021/04/23 04:00:13;;;;;;;12.63;3.80;;;3.70;91.30;;;;;;4999426;28;20052;-85
2021/04/23 04:02:40;;;;;;;11.60;3.90;;;3.70;91.30;;;;;;4997775;28;20049;-84
2021/04/23 04:05:08;;;;;;;12.07;5.60;;;3.60;91.30;;;;;;5000869;28;20058;-85
2021/04/23 04:07:34;;;;;;;14.40;4.45;;;3.50;91.40;;;;;;4996886;28;20050;-84
2021/04/23 04:10:00;;;;;;;12.27;4.13;;;3.50;91.40;;;;;;5000162;28;20053;-84
2021/04/23 04:12:26;;;;;;;12.73;3.78;;;3.50;91.60;;;;;;5001504;28;20145;-84
2021/04/23 04:14:52;;;;;;;6.95;3.28;;;3.50;91.70;;;;;;5000133;28;20587;-85
2021/04/23 04:17:18;;;;;;;11.07;3.97;;;3.50;91.80;;;;;;5001332;28;20080;-83
2021/04/23 04:19:44;;;;;;;13.57;3.75;;;3.60;91.90;;;;;;4999316;28;20077;-85
2021/04/23 04:22:10;;;;;;;8.88;3.60;;;3.60;91.90;;;;;;4996343;28;20127;-85
2021/04/23 04:24:36;;;;;;;11.30;3.60;;;3.60;91.90;;;;;;4988336;28;20100;-84
2021/04/23 04:27:03;;;;;;;12.10;4.00;;;3.60;92.00;;;;;;5012325;28;20539;-85
2021/04/23 04:29:29;;;;;;;14.10;3.80;;;3.60;92.00;;;;;;4988911;28;20164;-84
2021/04/23 04:31:54;;;;;;;13.80;4.35;;;3.70;91.90;;;;;;4991909;28;20140;-84
2021/04/23 04:34:20;;;;;;;10.50;3.83;;;3.60;91.90;;;;;;5001461;28;20046;-84
2021/04/23 04:36:47;;;;;;;15.43;3.60;;;3.60;91.80;;;;;;5003161;28;20484;-84
2021/04/23 04:39:13;;;;;;;12.23;4.05;;;3.60;91.80;;;;;;5005035;28;20045;-85
2021/04/23 04:41:39;;;;;;;13.75;4.00;;;3.60;91.90;;;;;;5005153;28;20484;-84
2021/04/23 04:44:06;;;;;;;16.67;3.80;;;3.70;91.90;;;;;;5004893;28;20052;-84
2021/04/23 04:46:32;;;;;;;13.38;4.10;;;3.70;91.80;;;;;;5005121;28;20046;-85
2021/04/23 04:48:58;;;;;;;9.30;4.18;;;3.70;91.80;;;;;;4994995;28;20080;-84
2021/04/23 04:51:25;;;;;;;11.10;4.15;;;3.70;91.80;;;;;;5002858;28;20041;-84
2021/04/23 04:53:51;;;;;;;11.55;4.03;;;3.70;91.80;;;;;;5006430;28;20107;-85
2021/04/23 04:56:17;;;;;;;12.02;4.10;;;3.70;91.70;;;;;;5004797;28;20045;-83
2021/04/23 04:58:43;;;;;;;12.90;4.20;;;3.70;91.80;;;;;;5004364;28;20476;-84
2021/04/23 05:01:11;;;;;;;12.00;4.13;;;3.70;91.80;;;;;;5002856;28;20072;-84
2021/04/23 05:03:38;;;;;;;15.45;4.63;;;3.70;91.90;;;;;;5005348;28;20045;-84
2021/04/23 05:06:05;;;;;;;12.07;4.28;;;3.80;91.90;;;;;;5004547;28;20073;-85
2021/04/23 05:08:31;;;;;;;9.10;4.45;;;3.80;91.80;;;;;;5003248;28;20041;-84
2021/04/23 05:10:57;;;;;;;9.40;3.63;;;3.90;91.80;;;;;;5003744;28;20038;-84
2021/04/23 05:13:23;;;;;;;12.48;4.32;;;3.90;91.60;;;;;;5004763;28;20045;-84
2021/04/23 05:15:49;;;;;;;10.50;4.30;;;4.00;91.50;;;;;;5003671;28;20045;-84
2021/04/23 05:18:15;;;;;;;13.15;4.35;;;4.10;91.50;;;;;;5002885;28;20049;-84
2021/04/23 05:20:41;;;;;;;10.18;4.57;;;4.10;91.40;;;;;;5005765;28;20144;-85
2021/04/23 05:23:08;;;;;;;15.85;5.30;;;4.20;91.40;;;;;;5001882;28;21084;-85
2021/04/23 05:25:35;;;;;;;17.27;4.97;;;4.30;91.30;;;;;;5003341;28;20058;-85
2021/04/23 05:28:02;;;;;;;12.13;4.75;;;4.40;91.20;;;;;;5003717;28;20053;-86
2021/04/23 05:30:30;;;;;;;11.90;4.80;;;4.50;91.10;;;;;;5003198;28;20419;-85
2021/04/23 05:32:57;;;;;;;14.18;4.47;;;4.50;91.00;;;;;;5002152;28;20162;-86
2021/04/23 05:35:23;;;;;;;14.10;4.65;;;4.60;90.90;;;;;;5003953;28;20419;-86
2021/04/23 05:37:50;;;;;;;11.27;4.18;;;4.70;90.70;;;;;;5004223;28;20050;-85
2021/04/23 05:40:37;;;;;;;15.15;5.00;;;4.80;90.60;;;;;;5002578;28;20049;-84
2021/04/23 05:43:05;;;;;;;13.38;4.68;;;4.90;90.70;;;;;;5002242;28;20506;-83
2021/04/23 05:45:31;;;;;;;9.88;4.88;;;5.00;90.40;;;;;;5004776;28;20065;-84
2021/04/23 05:47:58;;;;;;;12.88;4.97;;;5.10;90.20;;;;;;5001472;28;20050;-83
2021/04/23 05:50:25;;;;;;;12.95;4.38;;;5.20;89.70;;;;;;5003292;28;20128;-85
2021/04/23 05:52:53;;;;;;;13.80;4.75;;;5.30;89.50;;;;;;4985126;28;20120;-85
2021/04/23 05:55:21;;;;;;;12.88;4.78;;;5.40;89.00;;;;;;5001483;28;20074;-84
2021/04/23 05:57:47;;;;;;;14.05;4.80;;;5.40;88.80;;;;;;5003933;28;20084;-85
2021/04/23 06:00:18;;;;;;;10.75;4.45;;;5.50;88.80;;;;;;4987187;28;20188;-86
2021/04/23 06:02:44;;;;;;;11.57;4.60;;;5.60;88.30;;;;;;5002888;28;20242;-86
2021/04/23 06:05:11;;;;;;;12.85;4.68;;;5.70;88.30;;;;;;5001296;28;20075;-86
2021/04/23 06:07:37;;;;;;;12.25;5.03;;;5.80;88.00;;;;;;4982084;28;20123;-86
2021/04/23 06:10:06;;;;;;;13.88;5.20;;;5.80;87.80;;;;;;5002156;28;20129;-85
2021/04/23 06:12:32;;;;;;;11.30;4.10;;;6.00;88.00;;;;;;5003101;28;20049;-82
2021/04/23 06:14:58;;;;;;;9.07;4.60;;;6.10;87.60;;;;;;4999944;28;21274;-85
2021/04/23 06:17:24;;;;;;;10.02;3.97;;;6.20;86.40;;;;;;5003123;28;20066;-85
2021/04/23 06:19:50;;;;;;;11.38;4.10;;;6.30;85.50;;;;;;4985095;28;20042;-85
2021/04/23 06:22:15;;;;;;;10.23;4.43;;;6.40;85.60;;;;;;4999647;28;20449;-84
2021/04/23 06:24:41;;;;;;;11.05;4.75;;;6.50;84.50;;;;;;5003709;28;20056;-85
2021/04/23 06:27:07;;;;;;;12.57;4.38;;;6.50;84.30;;;;;;5002457;28;20562;-84
2021/04/23 06:29:33;;;;;;;10.38;4.40;;;6.60;84.30;;;;;;5000970;28;20132;-85
2021/04/23 06:31:59;;;;;;;10.20;4.43;;;6.80;84.10;;;;;;5001006;28;20046;-85
2021/04/23 06:34:25;;;;;;;9.80;4.15;;;6.80;84.00;;;;;;5002608;28;20052;-85
2021/04/23 06:36:51;;;;;;;13.23;4.60;;;6.90;83.40;;;;;;5001692;28;20045;-85
2021/04/23 06:39:19;;;;;;;9.68;4.57;;;7.00;83.90;;;;;;5003263;28;20129;-85
2021/04/23 06:41:45;;;;;;;9.00;3.40;;;7.20;82.90;;;;;;5001326;28;20034;-85
2021/04/23 06:44:12;;;;;;;10.57;4.53;;;7.30;80.80;;;;;;4999971;28;20104;-85
2021/04/23 06:46:38;;;;;;;12.02;4.60;;;7.40;82.20;;;;;;5002314;28;20065;-85
2021/04/23 06:49:04;;;;;;;9.82;3.97;;;7.40;81.90;;;;;;4998813;28;20038;-87
2021/04/23 06:51:31;;;;;;;9.40;3.95;;;7.50;80.00;;;;;;4992267;28;20085;-84
2021/04/23 06:53:56;;;;;;;9.25;4.70;;;7.60;79.80;;;;;;5002525;28;20079;-85
2021/04/23 06:56:22;;;;;;;13.55;4.90;;;7.60;80.60;;;;;;5000751;28;20490;-84
2021/04/23 06:58:48;;;;;;;12.00;4.70;;;7.70;80.10;;;;;;4999519;28;20046;-83
2021/04/23 07:01:16;;;;;;;8.73;4.63;;;7.80;80.90;;;;;;5000081;28;20082;-84
2021/04/23 07:03:43;;;;;;;8.52;3.83;;;7.90;80.80;;;;;;5001870;28;20045;-84
2021/04/23 07:06:10;;;;;;;12.40;4.68;;;8.10;78.30;;;;;;5000529;28;20046;-84
2021/04/23 07:08:40;;;;;;;8.73;4.15;;;8.10;79.10;;;;;;4997605;28;20079;-84
2021/04/23 07:11:06;;;;;;;9.38;4.18;;;8.10;78.00;;;;;;4999821;28;20049;-84
2021/04/23 07:13:33;;;;;;;7.43;3.70;;;8.00;78.30;;;;;;5001169;28;20046;-85
2021/04/23 07:16:00;;;;;;;11.85;4.90;;;8.00;76.60;;;;;;4999986;28;20053;-84
2021/04/23 07:18:27;;;;;;;11.85;4.65;;;7.90;77.70;;;;;;5001271;28;20045;-85
2021/04/23 07:20:56;;;;;;;13.85;4.90;;;7.90;77.30;;;;;;5003075;28;20045;-84
2021/04/23 07:23:22;;;;;;;10.05;4.45;;;7.90;78.20;;;;;;4999772;28;20049;-84
2021/04/23 07:25:49;;;;;;;9.65;4.68;;;8.00;77.30;;;;;;4997842;28;20504;-84
2021/04/23 07:28:15;;;;;;;8.20;4.20;;;8.10;77.00;;;;;;5002771;28;20041;-87
2021/04/23 07:30:41;;;;;;;8.25;4.03;;;8.10;75.80;;;;;;4991566;28;20053;-86
2021/04/23 07:33:11;;;;;;;12.02;4.63;;;8.30;73.70;;;;;;4983943;28;20053;-87
2021/04/23 07:35:37;;;;;;;8.20;4.35;;;8.50;75.60;;;;;;5002092;28;20137;-86
2021/04/23 07:38:03;;;;;;;12.75;4.15;;;8.70;76.60;;;;;;4999688;28;20456;-85
2021/04/23 07:40:30;;;;;;;7.75;4.20;;;8.90;74.40;;;;;;4998961;28;20077;-86
2021/04/23 07:42:56;;;;;;;5.97;3.17;;;9.00;74.20;;;;;;4997718;28;20096;-86
2021/04/23 07:45:22;;;;;;;8.07;4.10;;;8.90;73.40;;;;;;4982169;28;20056;-86
2021/04/23 07:47:49;;;;;;;8.45;4.00;;;8.70;73.20;;;;;;5000564;28;20046;-85
2021/04/23 07:50:19;;;;;;;10.52;4.20;;;8.60;72.70;;;;;;5000301;28;20070;-86
2021/04/23 07:52:45;;;;;;;7.85;4.10;;;8.60;71.90;;;;;;4983979;28;20066;-82
2021/04/23 07:55:12;;;;;;;13.98;6.03;;;8.60;73.80;;;;;;5000249;28;20049;-83
2021/04/23 07:57:38;;;;;;;7.78;4.15;;;8.80;73.70;;;;;;5001317;28;20056;-82
2021/04/23 08:00:09;;;;;;;7.80;3.85;;;9.20;72.30;;;;;;5000254;28;20435;-83
2021/04/23 08:02:37;;;;;;;10.57;4.43;;;9.20;71.10;;;;;;5000337;28;20049;-82
2021/04/23 08:05:04;;;;;;;14.48;4.30;;;9.20;70.80;;;;;;4982698;28;20046;-83
2021/04/23 08:07:30;;;;;;;10.57;4.32;;;9.30;70.10;;;;;;4995959;28;20432;-83
2021/04/23 08:09:55;;;;;;;8.45;4.20;;;9.50;69.00;;;;;;4999364;28;20064;-83
2021/04/23 08:12:21;;;;;;;9.00;4.10;;;9.60;69.90;;;;;;4999973;28;20050;-84
2021/04/23 08:14:47;;;;;;;5.35;2.75;;;9.60;68.90;;;;;;5000056;28;20053;-83
2021/04/23 08:17:13;;;;;;;16.13;5.38;;;9.60;68.10;;;;;;5003579;28;20795;-83
2021/04/23 08:19:39;;;;;;;7.78;4.43;;;9.30;69.80;;;;;;5001174;28;20050;-83
2021/04/23 08:22:05;;;;;;;7.88;4.70;;;9.40;69.20;;;;;;5001548;28;20042;-83
2021/04/23 08:24:31;;;;;;;9.00;4.40;;;9.50;69.70;;;;;;4999666;28;20049;-83
2021/04/23 08:26:57;;;;;;;7.95;4.63;;;9.80;66.20;;;;;;4998274;28;20042;-83
2021/04/23 08:29:23;;;;;;;9.05;4.63;;;10.00;66.20;;;;;;4997676;28;20096;-86
2021/04/23 08:31:49;;;;;;;7.07;2.80;;;10.30;67.90;;;;;;4999123;28;20443;-86
2021/04/23 08:34:15;;;;;;;10.02;4.45;;;10.60;66.50;;;;;;4998112;28;20100;-84
2021/04/23 08:36:41;;;;;;;10.55;4.40;;;10.40;65.70;;;;;;4997668;28;20491;-84
2021/04/23 08:39:08;;;;;;;8.32;3.97;;;10.40;66.40;;;;;;4981993;28;20137;-84
2021/04/23 08:41:36;;;;;;;8.73;3.95;;;10.30;66.30;;;;;;4981083;28;20400;-87
2021/04/23 08:44:03;;;;;;;10.63;4.75;;;10.20;66.60;;;;;;4998758;28;20438;-87
2021/04/23 08:46:30;;;;;;;10.65;4.45;;;10.20;67.20;;;;;;4998002;28;20480;-84
2021/04/23 08:48:56;;;;;;;6.45;3.92;;;10.40;66.10;;;;;;4998729;28;20038;-86
2021/04/23 08:51:22;;;;;;;7.03;4.13;;;10.50;63.50;;;;;;4999101;28;20412;-84
2021/04/23 08:53:53;;;;;;;9.52;5.28;;;10.50;62.10;;;;;;5000416;28;20559;-83
2021/04/23 08:56:20;;;;;;;11.75;5.65;;;10.70;64.50;;;;;;4996910;28;20551;-87
2021/04/23 08:58:49;;;;;;;11.32;6.13;;;10.70;62.90;;;;;;5004996;28;20248;-86
2021/04/23 09:01:15;;;;;;;8.43;4.90;;;10.70;64.10;;;;;;4991985;28;20132;-89
2021/04/23 09:03:41;;;;;;;9.25;5.35;;;10.70;63.90;;;;;;5003184;28;20136;-86
2021/04/23 09:06:17;;;;;;;10.48;5.43;;;10.50;64.60;;;;;;5004215;28;20447;-90
2021/04/23 09:09:04;;;;;;;11.02;5.45;;;10.30;65.20;;;;;;4999135;28;20073;-88
2021/04/23 09:11:41;;;;;;;10.45;5.95;;;10.50;65.40;;;;;;4968633;28;20057;-87
2021/04/23 09:14:09;;;;;;;10.32;5.78;;;10.70;64.20;;;;;;4979855;28;20058;-89
2021/04/23 09:16:44;;;;;;;9.98;5.35;;;10.80;64.40;;;;;;4993876;28;20148;-88
2021/04/23 09:19:31;;;;;;;9.43;5.38;;;10.70;62.90;;;;;;4996420;28;20165;-89
2021/04/23 09:22:05;;;;;;;8.88;5.28;;;10.40;62.60;;;;;;4989021;28;20038;-88
2021/04/23 09:24:44;;;;;;;9.18;5.75;;;10.50;63.20;;;;;;5003114;28;20060;-85
2021/04/23 09:27:15;;;;;;;8.63;4.63;;;10.50;65.40;;;;;;5000956;28;20049;-88
2021/04/23 09:29:43;;;;;;;8.10;4.82;;;10.80;60.70;;;;;;4990098;28;20080;-87
2021/04/23 09:32:12;;;;;;;8.98;4.85;;;10.60;58.90;;;;;;5001692;28;20057;-87
2021/04/23 09:34:50;;;;;;;10.95;5.45;;;10.40;61.30;;;;;;5002867;28;20057;-88
2021/04/23 09:37:17;;;;;;;9.00;4.80;;;10.30;62.00;;;;;;4981590;28;20129;-87
2021/04/23 09:39:43;;;;;;;14.50;5.25;;;10.20;62.70;;;;;;5003863;28;20164;-87
2021/04/23 09:42:11;;;;;;;11.82;5.00;;;10.00;63.80;;;;;;4984575;28;20563;-87
2021/04/23 09:44:42;;;;;;;8.35;5.22;;;10.10;65.00;;;;;;4984614;28;20068;-87
2021/04/23 09:47:14;;;;;;;7.82;4.38;;;10.20;65.00;;;;;;5002954;28;20087;-87
2021/04/23 09:49:45;;;;;;;7.82;4.65;;;10.70;63.40;;;;;;4963263;28;20059;-87
2021/04/23 09:52:14;;;;;;;6.57;3.80;;;10.90;60.10;;;;;;4999571;28;20056;-86
2021/04/23 09:54:47;;;;;;;11.32;5.15;;;11.00;59.80;;;;;;4974939;28;20138;-88
2021/04/23 09:57:18;;;;;;;8.40;5.50;;;10.90;59.30;;;;;;4962560;28;20074;-88
2021/04/23 09:59:57;;;;;;;13.07;5.07;;;10.80;59.60;;;;;;4991912;28;20080;-88
2021/04/23 10:02:26;;;;;;;10.50;5.32;;;11.20;60.00;;;;;;4969838;28;20082;-88
2021/04/23 10:04:52;;;;;;;9.35;4.68;;;11.60;60.80;;;;;;5005582;28;20041;-89
2021/04/23 10:07:22;;;;;;;7.50;3.63;;;11.60;60.60;;;;;;4968085;28;20050;-88
2021/04/23 10:10:05;;;;;;;13.00;5.03;;;11.20;60.10;;;;;;4969080;28;20056;-87
2021/04/23 10:13:06;;;;;;;11.52;5.50;;;10.90;61.60;;;;;;4964670;28;20116;-87
2021/04/23 10:15:40;;;;;;;13.32;5.72;;;10.70;61.00;;;;;;4971144;28;20057;-88
2021/04/23 10:18:11;;;;;;;10.57;5.88;;;10.90;61.50;;;;;;4997284;28;20045;-88
2021/04/23 10:20:40;;;;;;;7.07;3.90;;;11.30;60.40;;;;;;4993929;28;20511;-87
2021/04/23 10:23:08;;;;;;;8.52;4.70;;;11.70;61.50;;;;;;4998841;28;21981;-88
2021/04/23 10:25:35;;;;;;;9.80;5.50;;;12.10;58.70;;;;;;5001023;28;20048;-87
2021/04/23 10:28:03;;;;;;;10.07;5.72;;;12.20;59.80;;;;;;4983749;28;20085;-87
2021/04/23 10:30:34;;;;;;;9.77;5.30;;;12.00;59.20;;;;;;4992719;28;20058;-86
2021/04/23 10:33:02;;;;;;;8.55;5.82;;;11.90;60.30;;;;;;4983515;28;21458;-87
2021/04/23 10:35:29;;;;;;;7.50;5.20;;;12.30;61.60;;;;;;5001224;28;20050;-87
2021/04/23 10:38:03;;;;;;;7.10;4.45;;;12.50;55.30;;;;;;5003075;28;20041;-87
2021/04/23 10:40:30;;;;;;;9.85;4.63;;;12.30;55.20;;;;;;4988547;28;20046;-88
2021/04/23 10:43:18;;;;;;;8.75;4.47;;;11.90;57.40;;;;;;5004794;28;20188;-87
2021/04/23 10:45:50;;;;;;;7.43;4.38;;;11.70;56.90;;;;;;4981884;28;20053;-84
2021/04/23 10:48:16;;;;;;;8.98;4.90;;;11.40;57.30;;;;;;4976733;28;20038;-85
2021/04/23 10:50:44;;;;;;;7.57;4.55;;;11.20;58.30;;;;;;4982285;28;20058;-85
2021/04/23 10:53:15;;;;;;;13.90;5.75;;;11.10;57.40;;;;;;4996978;28;20639;-86
2021/04/23 10:55:46;;;;;;;10.18;5.63;;;11.10;59.50;;;;;;4975723;28;20949;-88
2021/04/23 10:58:15;;;;;;;8.73;4.88;;;11.60;58.70;;;;;;5003233;28;20052;-87
2021/04/23 11:00:43;;;;;;;6.22;4.43;;;12.10;58.00;;;;;;4994308;28;20089;-89
2021/04/23 11:03:35;;;;;;;8.18;5.53;;;12.60;56.90;;;;;;4971552;28;20050;-87
2021/04/23 11:06:05;;;;;;;9.27;4.03;;;13.10;57.80;;;;;;4992533;28;20049;-89
2021/04/23 11:08:33;;;;;;;6.28;4.45;;;13.10;55.50;;;;;;4997463;28;20500;-89
2021/04/23 11:13:32;;;;;;;7.88;4.68;;;12.30;54.50;;;;;;4992592;28;20121;-88
2021/04/23 11:16:38;;;;;;;8.15;5.57;;;11.90;55.70;;;;;;4990673;28;20834;-89
2021/04/23 11:19:19;;;;;;;9.30;5.50;;;11.70;56.70;;;;;;4980646;28;20496;-89
2021/04/23 11:21:51;;;;;;;7.47;5.20;;;11.90;57.70;;;;;;5001527;28;20054;-88
2021/04/23 11:24:22;;;;;;;8.63;4.00;;;12.40;56.90;;;;;;4983229;28;20057;-86
2021/04/23 11:29:26;;;;;;;8.63;5.05;;;12.10;53.60;;;;;;4992980;28;20081;-88
2021/04/23 11:32:15;;;;;;;7.28;5.47;;;11.90;55.30;;;;;;4992227;28;20044;-88
2021/04/23 11:34:44;;;;;;;9.02;5.60;;;12.20;57.50;;;;;;4989077;28;20051;-88
2021/04/23 11:37:11;;;;;;;10.23;5.30;;;12.40;58.00;;;;;;4991008;28;20074;-88
2021/04/23 11:39:42;;;;;;;6.53;5.10;;;12.70;55.60;;;;;;4984864;28;20053;-89
2021/04/23 11:42:24;;;;;;;8.85;5.00;;;12.70;53.80;;;;;;4990806;28;20144;-89
2021/04/23 11:45:02;;;;;;;9.63;5.72;;;12.40;52.60;;;;;;4994532;28;20069;-89
2021/04/23 11:47:36;;;;;;;7.13;4.55;;;12.30;53.00;;;;;;4991156;28;20076;-88
2021/04/23 11:50:23;;;;;;;6.95;4.53;;;12.80;56.50;;;;;;4993202;28;20080;-87
2021/04/23 11:52:52;;;;;;;10.20;4.88;;;13.10;53.60;;;;;;4973434;28;20050;-87
2021/04/23 11:55:20;;;;;;;11.60;5.80;;;12.80;53.30;;;;;;4981107;28;20042;-87
2021/04/23 11:57:47;;;;;;;10.27;5.22;;;12.60;53.90;;;;;;4985002;28;20046;-90
2021/04/23 12:00:22;;;;;;;9.27;5.20;;;12.90;52.30;;;;;;4991531;28;20408;-89
2021/04/23 12:02:56;;;;;;;8.05;5.32;;;13.00;52.30;;;;;;4998378;28;20543;-87
2021/04/23 12:05:32;;;;;;;6.43;3.80;;;12.80;52.70;;;;;;4998336;28;20158;-89
2021/04/23 12:08:01;;;;;;;7.68;4.75;;;12.80;53.20;;;;;;4999238;28;20336;-90
2021/04/23 12:10:29;;;;;;;6.93;5.07;;;12.90;54.70;;;;;;4998112;28;20077;-89
2021/04/23 12:12:55;;;;;;;7.13;4.75;;;13.10;52.90;;;;;;4989117;28;20133;-90
2021/04/23 12:15:33;;;;;;;12.50;5.20;;;13.30;53.80;;;;;;4974853;28;20463;-88
2021/04/23 12:18:04;;;;;;;6.43;4.75;;;;;;;;;;4978676;28;20521;-89
2021/04/23 12:20:41;;;;;;;8.90;5.85;;;13.80;50.00;;;;;;4973817;28;20043;-89
2021/04/23 12:23:10;;;;;;;10.23;5.60;;;13.60;50.90;;;;;;4940717;28;20086;-89
2021/04/23 12:25:44;;;;;;;8.68;5.05;;;13.10;52.90;;;;;;4954374;28;20053;-90
2021/04/23 12:28:35;;;;;;;7.53;4.72;;;13.10;51.70;;;;;;4950820;28;20050;-89
2021/04/23 12:31:01;;;;;;;7.80;5.05;;;13.20;50.70;;;;;;4928833;28;20068;-88
2021/04/23 12:33:35;;;;;;;9.73;5.75;;;13.30;50.50;;;;;;4963062;28;20053;-89
2021/04/23 12:36:17;;;;;;;10.80;5.45;;;13.50;52.10;;;;;;4946374;28;20043;-91
2021/04/23 12:38:46;;;;;;;10.70;5.10;;;13.80;53.40;;;;;;4964578;28;20571;-90
2021/04/23 12:41:19;;;;;;;7.93;5.70;;;14.00;52.10;;;;;;4959867;28;20058;-90
2021/04/23 12:43:45;;;;;;;8.98;5.78;;;14.10;51.70;;;;;;4981187;28;20081;-89
2021/04/23 12:46:26;;;;;;;8.73;5.38;;;14.20;49.30;;;;;;4958621;28;20081;-89
2021/04/23 12:48:59;;;;;;;10.05;6.07;;;14.20;50.20;;;;;;4964162;28;20038;-90
2021/04/23 12:51:26;;;;;;;10.02;6.32;;;13.90;50.70;;;;;;4971658;28;20065;-89
2021/04/23 12:53:53;;;;;;;9.27;5.03;;;13.60;52.00;;;;;;4974064;28;20042;-89
2021/04/23 12:56:25;;;;;;;11.63;6.10;;;13.70;51.50;;;;;;4962366;28;20519;-90
2021/04/23 12:58:52;;;;;;;6.78;4.80;;;13.90;51.10;;;;;;4973603;28;20042;-90
2021/04/23 13:01:18;;;;;;;9.77;5.75;;;13.90;48.30;;;;;;4973660;28;20113;-89
2021/04/23 13:03:44;;;;;;;8.80;5.32;;;14.00;49.70;;;;;;4984726;28;20042;-89